sensor_id;sensor_type;location;lat;lon;timestamp;temperature;humidity
24618;DHT22;12762;51.730;5.356;2022-10-31T00:01:28;14.70;79.30
24618;DHT22;12762;51.730;5.356;2022-10-31T00:03:55;14.60;79.20
24618;DHT22;12762;51.730;5.356;2022-10-31T00:06:25;14.60;79.20
24618;DHT22;12762;51.730;5.356;2022-10-31T00:08:55;14.60;79.30
24618;DHT22;12762;51.730;5.356;2022-10-31T00:11:22;14.60;79.40
24618;DHT22;12762;51.730;5.356;2022-10-31T00:13:52;14.60;79.40
24618;DHT22;12762;51.730;5.356;2022-10-31T00:16:24;14.60;80.20
24618;DHT22;12762;51.730;5.356;2022-10-31T00:18:52;14.60;79.50
24618;DHT22;12762;51.730;5.356;2022-10-31T00:21:20;14.50;79.50
24618;DHT22;12762;51.730;5.356;2022-10-31T00:23:47;14.50;79.60
24618;DHT22;12762;51.730;5.356;2022-10-31T00:26:14;14.50;79.70
24618;DHT22;12762;51.730;5.356;2022-10-31T00:28:41;14.50;79.70
24618;DHT22;12762;51.730;5.356;2022-10-31T00:31:10;14.50;79.70
24618;DHT22;12762;51.730;5.356;2022-10-31T00:33:38;14.50;79.90
24618;DHT22;12762;51.730;5.356;2022-10-31T00:36:06;14.40;79.90
24618;DHT22;12762;51.730;5.356;2022-10-31T00:38:33;14.40;80.00
24618;DHT22;12762;51.730;5.356;2022-10-31T00:41:00;14.40;80.00
24618;DHT22;12762;51.730;5.356;2022-10-31T00:43:30;14.40;80.10
24618;DHT22;12762;51.730;5.356;2022-10-31T00:45:56;14.40;80.30
24618;DHT22;12762;51.730;5.356;2022-10-31T00:48:23;14.40;80.40
24618;DHT22;12762;51.730;5.356;2022-10-31T00:50:50;14.40;80.40
24618;DHT22;12762;51.730;5.356;2022-10-31T00:53:17;14.40;80.40
24618;DHT22;12762;51.730;5.356;2022-10-31T00:55:43;14.40;80.50
24618;DHT22;12762;51.730;5.356;2022-10-31T00:58:10;14.40;80.50
24618;DHT22;12762;51.730;5.356;2022-10-31T01:00:37;14.40;80.60
24618;DHT22;12762;51.730;5.356;2022-10-31T01:03:04;14.40;80.60
24618;DHT22;12762;51.730;5.356;2022-10-31T01:05:31;14.40;80.60
24618;DHT22;12762;51.730;5.356;2022-10-31T01:07:58;14.40;80.60
24618;DHT22;12762;51.730;5.356;2022-10-31T01:10:25;14.30;80.60
24618;DHT22;12762;51.730;5.356;2022-10-31T01:12:52;14.30;80.70
24618;DHT22;12762;51.730;5.356;2022-10-31T01:15:21;14.30;80.70
24618;DHT22;12762;51.730;5.356;2022-10-31T01:17:48;14.30;80.80
24618;DHT22;12762;51.730;5.356;2022-10-31T01:20:18;14.30;80.80
24618;DHT22;12762;51.730;5.356;2022-10-31T01:22:45;14.20;80.80
24618;DHT22;12762;51.730;5.356;2022-10-31T01:25:14;14.20;80.90
24618;DHT22;12762;51.730;5.356;2022-10-31T01:27:41;14.20;80.90
24618;DHT22;12762;51.730;5.356;2022-10-31T01:30:11;14.20;81.00
24618;DHT22;12762;51.730;5.356;2022-10-31T01:32:37;14.10;81.00
24618;DHT22;12762;51.730;5.356;2022-10-31T01:35:04;14.10;81.10
24618;DHT22;12762;51.730;5.356;2022-10-31T01:37:31;14.10;81.90
24618;DHT22;12762;51.730;5.356;2022-10-31T01:39:58;14.10;81.20
24618;DHT22;12762;51.730;5.356;2022-10-31T01:42:25;14.10;81.20
24618;DHT22;12762;51.730;5.356;2022-10-31T01:44:55;14.10;81.20
24618;DHT22;12762;51.730;5.356;2022-10-31T01:47:33;14.00;81.20
24618;DHT22;12762;51.730;5.356;2022-10-31T01:50:06;14.00;81.10
24618;DHT22;12762;51.730;5.356;2022-10-31T01:52:56;14.00;81.20
24618;DHT22;12762;51.730;5.356;2022-10-31T01:55:29;14.00;81.30
24618;DHT22;12762;51.730;5.356;2022-10-31T01:58:04;13.90;81.20
24618;DHT22;12762;51.730;5.356;2022-10-31T02:00:31;13.90;81.30
24618;DHT22;12762;51.730;5.356;2022-10-31T02:02:58;13.90;81.30
24618;DHT22;12762;51.730;5.356;2022-10-31T02:05:29;13.90;81.40
24618;DHT22;12762;51.730;5.356;2022-10-31T02:10:38;13.80;81.50
24618;DHT22;12762;51.730;5.356;2022-10-31T02:13:07;13.80;81.50
24618;DHT22;12762;51.730;5.356;2022-10-31T02:15:36;13.80;81.50
24618;DHT22;12762;51.730;5.356;2022-10-31T02:18:05;13.70;81.50
24618;DHT22;12762;51.730;5.356;2022-10-31T02:23:23;13.60;81.40
24618;DHT22;12762;51.730;5.356;2022-10-31T02:37:35;13.40;81.40
24618;DHT22;12762;51.730;5.356;2022-10-31T02:40:22;13.40;81.50
24618;DHT22;12762;51.730;5.356;2022-10-31T02:43:11;13.30;81.60
24618;DHT22;12762;51.730;5.356;2022-10-31T02:48:20;13.30;81.80
24618;DHT22;12762;51.730;5.356;2022-10-31T02:50:55;13.20;81.70
24618;DHT22;12762;51.730;5.356;2022-10-31T02:53:22;13.20;81.80
24618;DHT22;12762;51.730;5.356;2022-10-31T02:55:55;13.20;81.90
24618;DHT22;12762;51.730;5.356;2022-10-31T02:58:25;13.10;81.70
24618;DHT22;12762;51.730;5.356;2022-10-31T03:09:51;13.00;81.80
24618;DHT22;12762;51.730;5.356;2022-10-31T03:13:08;12.90;81.70
24618;DHT22;12762;51.730;5.356;2022-10-31T03:15:33;12.90;81.70
24618;DHT22;12762;51.730;5.356;2022-10-31T03:18:18;12.80;81.90
24618;DHT22;12762;51.730;5.356;2022-10-31T03:21:18;12.80;82.00
24618;DHT22;12762;51.730;5.356;2022-10-31T03:23:44;12.80;82.20
24618;DHT22;12762;51.730;5.356;2022-10-31T03:26:14;12.80;82.30
24618;DHT22;12762;51.730;5.356;2022-10-31T03:28:49;12.80;82.30
24618;DHT22;12762;51.730;5.356;2022-10-31T03:31:18;12.70;82.20
24618;DHT22;12762;51.730;5.356;2022-10-31T03:33:48;12.70;83.00
24618;DHT22;12762;51.730;5.356;2022-10-31T03:36:17;12.60;82.10
24618;DHT22;12762;51.730;5.356;2022-10-31T03:38:45;12.60;82.20
24618;DHT22;12762;51.730;5.356;2022-10-31T03:41:17;12.60;82.40
24618;DHT22;12762;51.730;5.356;2022-10-31T03:43:55;12.60;82.40
24618;DHT22;12762;51.730;5.356;2022-10-31T03:46:24;12.50;82.20
24618;DHT22;12762;51.730;5.356;2022-10-31T03:48:51;12.50;82.20
24618;DHT22;12762;51.730;5.356;2022-10-31T03:51:41;12.40;82.10
24618;DHT22;12762;51.730;5.356;2022-10-31T03:57:07;12.30;82.20
24618;DHT22;12762;51.730;5.356;2022-10-31T03:59:40;12.30;82.30
24618;DHT22;12762;51.730;5.356;2022-10-31T04:02:15;12.30;82.40
24618;DHT22;12762;51.730;5.356;2022-10-31T04:04:47;12.30;82.50
24618;DHT22;12762;51.730;5.356;2022-10-31T04:07:17;12.20;82.50
24618;DHT22;12762;51.730;5.356;2022-10-31T04:09:49;12.20;82.60
24618;DHT22;12762;51.730;5.356;2022-10-31T04:12:17;12.20;82.80
24618;DHT22;12762;51.730;5.356;2022-10-31T04:14:46;12.20;82.80
24618;DHT22;12762;51.730;5.356;2022-10-31T04:17:16;12.20;82.90
24618;DHT22;12762;51.730;5.356;2022-10-31T04:19:44;12.20;82.90
24618;DHT22;12762;51.730;5.356;2022-10-31T04:22:11;12.10;82.80
24618;DHT22;12762;51.730;5.356;2022-10-31T04:24:39;12.10;82.90
24618;DHT22;12762;51.730;5.356;2022-10-31T04:27:07;12.10;83.10
24618;DHT22;12762;51.730;5.356;2022-10-31T04:29:33;12.10;83.10
24618;DHT22;12762;51.730;5.356;2022-10-31T04:32:03;12.10;83.10
24618;DHT22;12762;51.730;5.356;2022-10-31T04:34:30;12.10;83.20
24618;DHT22;12762;51.730;5.356;2022-10-31T04:36:57;12.10;83.30
24618;DHT22;12762;51.730;5.356;2022-10-31T04:39:23;12.10;83.40
24618;DHT22;12762;51.730;5.356;2022-10-31T04:41:52;12.10;83.50
24618;DHT22;12762;51.730;5.356;2022-10-31T04:44:19;12.10;83.40
24618;DHT22;12762;51.730;5.356;2022-10-31T04:46:46;12.10;83.40
24618;DHT22;12762;51.730;5.356;2022-10-31T04:49:13;12.10;83.50
24618;DHT22;12762;51.730;5.356;2022-10-31T04:51:39;12.00;83.50
24618;DHT22;12762;51.730;5.356;2022-10-31T04:54:06;12.00;83.50
24618;DHT22;12762;51.730;5.356;2022-10-31T04:56:33;12.00;83.60
24618;DHT22;12762;51.730;5.356;2022-10-31T04:59:00;12.00;83.60
24618;DHT22;12762;51.730;5.356;2022-10-31T05:01:27;12.00;83.80
24618;DHT22;12762;51.730;5.356;2022-10-31T05:03:54;12.00;83.80
24618;DHT22;12762;51.730;5.356;2022-10-31T05:06:21;12.00;83.90
24618;DHT22;12762;51.730;5.356;2022-10-31T05:08:53;12.00;83.90
24618;DHT22;12762;51.730;5.356;2022-10-31T05:11:20;12.00;84.10
24618;DHT22;12762;51.730;5.356;2022-10-31T05:13:46;11.90;84.10
24618;DHT22;12762;51.730;5.356;2022-10-31T05:16:13;11.90;84.20
24618;DHT22;12762;51.730;5.356;2022-10-31T05:18:42;11.90;84.30
24618;DHT22;12762;51.730;5.356;2022-10-31T05:21:11;11.90;84.40
24618;DHT22;12762;51.730;5.356;2022-10-31T05:23:37;11.90;84.50
24618;DHT22;12762;51.730;5.356;2022-10-31T05:26:08;11.90;84.60
24618;DHT22;12762;51.730;5.356;2022-10-31T05:28:35;11.90;84.70
24618;DHT22;12762;51.730;5.356;2022-10-31T05:31:02;12.00;84.90
24618;DHT22;12762;51.730;5.356;2022-10-31T05:33:29;12.00;85.10
24618;DHT22;12762;51.730;5.356;2022-10-31T05:35:56;12.00;85.10
24618;DHT22;12762;51.730;5.356;2022-10-31T05:38:23;12.00;85.20
24618;DHT22;12762;51.730;5.356;2022-10-31T05:40:49;12.00;85.30
24618;DHT22;12762;51.730;5.356;2022-10-31T05:43:16;12.00;85.30
24618;DHT22;12762;51.730;5.356;2022-10-31T05:45:43;12.00;85.50
24618;DHT22;12762;51.730;5.356;2022-10-31T05:48:09;12.10;85.60
24618;DHT22;12762;51.730;5.356;2022-10-31T05:50:36;12.10;85.70
24618;DHT22;12762;51.730;5.356;2022-10-31T05:53:05;12.10;85.80
24618;DHT22;12762;51.730;5.356;2022-10-31T05:55:32;12.10;85.90
24618;DHT22;12762;51.730;5.356;2022-10-31T05:57:59;12.10;86.00
24618;DHT22;12762;51.730;5.356;2022-10-31T06:00:27;12.10;86.00
24618;DHT22;12762;51.730;5.356;2022-10-31T06:03:02;12.10;86.10
24618;DHT22;12762;51.730;5.356;2022-10-31T06:05:30;12.10;86.10
24618;DHT22;12762;51.730;5.356;2022-10-31T06:07:57;12.10;86.20
24618;DHT22;12762;51.730;5.356;2022-10-31T06:10:25;12.10;86.30
24618;DHT22;12762;51.730;5.356;2022-10-31T06:12:53;12.10;86.50
24618;DHT22;12762;51.730;5.356;2022-10-31T06:15:20;12.10;86.50
24618;DHT22;12762;51.730;5.356;2022-10-31T06:18:19;12.10;86.50
24618;DHT22;12762;51.730;5.356;2022-10-31T06:20:46;12.10;86.20
24618;DHT22;12762;51.730;5.356;2022-10-31T06:23:13;12.10;86.60
24618;DHT22;12762;51.730;5.356;2022-10-31T06:25:40;12.10;86.60
24618;DHT22;12762;51.730;5.356;2022-10-31T06:28:06;12.10;86.80
24618;DHT22;12762;51.730;5.356;2022-10-31T06:30:33;12.10;86.80
24618;DHT22;12762;51.730;5.356;2022-10-31T06:33:04;12.10;86.80
24618;DHT22;12762;51.730;5.356;2022-10-31T06:35:31;12.10;87.00
24618;DHT22;12762;51.730;5.356;2022-10-31T06:38:01;12.10;87.00
24618;DHT22;12762;51.730;5.356;2022-10-31T06:40:28;12.10;87.00
24618;DHT22;12762;51.730;5.356;2022-10-31T06:42:57;12.10;87.20
24618;DHT22;12762;51.730;5.356;2022-10-31T06:45:24;12.20;87.40
24618;DHT22;12762;51.730;5.356;2022-10-31T06:47:55;12.20;87.40
24618;DHT22;12762;51.730;5.356;2022-10-31T06:50:42;12.20;87.50
24618;DHT22;12762;51.730;5.356;2022-10-31T06:53:09;12.20;87.50
24618;DHT22;12762;51.730;5.356;2022-10-31T06:55:40;12.20;87.50
24618;DHT22;12762;51.730;5.356;2022-10-31T06:58:09;12.20;87.60
24618;DHT22;12762;51.730;5.356;2022-10-31T07:00:36;12.20;87.70
24618;DHT22;12762;51.730;5.356;2022-10-31T07:03:06;12.20;87.70
24618;DHT22;12762;51.730;5.356;2022-10-31T07:05:33;12.30;88.70
24618;DHT22;12762;51.730;5.356;2022-10-31T07:08:05;12.20;87.80
24618;DHT22;12762;51.730;5.356;2022-10-31T07:10:34;12.30;87.80
24618;DHT22;12762;51.730;5.356;2022-10-31T07:13:12;12.30;87.80
24618;DHT22;12762;51.730;5.356;2022-10-31T07:15:41;12.30;87.80
24618;DHT22;12762;51.730;5.356;2022-10-31T07:18:10;12.30;87.70
24618;DHT22;12762;51.730;5.356;2022-10-31T07:20:38;12.30;87.70
24618;DHT22;12762;51.730;5.356;2022-10-31T07:23:04;12.30;87.50
24618;DHT22;12762;51.730;5.356;2022-10-31T07:25:32;12.30;87.50
24618;DHT22;12762;51.730;5.356;2022-10-31T07:27:59;12.40;87.70
24618;DHT22;12762;51.730;5.356;2022-10-31T07:30:26;12.40;87.60
24618;DHT22;12762;51.730;5.356;2022-10-31T07:32:56;12.50;87.70
24618;DHT22;12762;51.730;5.356;2022-10-31T07:35:25;12.50;87.60
24618;DHT22;12762;51.730;5.356;2022-10-31T07:37:52;12.60;87.70
24618;DHT22;12762;51.730;5.356;2022-10-31T07:40:20;12.60;87.60
24618;DHT22;12762;51.730;5.356;2022-10-31T07:42:49;12.70;87.70
24618;DHT22;12762;51.730;5.356;2022-10-31T07:45:23;12.80;87.80
24618;DHT22;12762;51.730;5.356;2022-10-31T07:47:51;12.90;87.60
24618;DHT22;12762;51.730;5.356;2022-10-31T07:50:24;13.00;87.80
24618;DHT22;12762;51.730;5.356;2022-10-31T07:53:02;13.10;87.70
24618;DHT22;12762;51.730;5.356;2022-10-31T07:55:29;13.20;87.70
24618;DHT22;12762;51.730;5.356;2022-10-31T07:58:02;13.30;87.60
24618;DHT22;12762;51.730;5.356;2022-10-31T08:00:30;13.40;87.70
24618;DHT22;12762;51.730;5.356;2022-10-31T08:03:02;13.50;87.50
24618;DHT22;12762;51.730;5.356;2022-10-31T08:05:30;13.60;87.50
24618;DHT22;12762;51.730;5.356;2022-10-31T08:07:57;13.80;88.00
24618;DHT22;12762;51.730;5.356;2022-10-31T08:10:26;14.60;88.70
24618;DHT22;12762;51.730;5.356;2022-10-31T08:13:04;15.60;88.10
24618;DHT22;12762;51.730;5.356;2022-10-31T08:15:31;16.50;87.10
24618;DHT22;12762;51.730;5.356;2022-10-31T08:17:58;17.20;85.10
24618;DHT22;12762;51.730;5.356;2022-10-31T08:20:26;17.80;83.80
24618;DHT22;12762;51.730;5.356;2022-10-31T08:22:57;18.10;82.40
24618;DHT22;12762;51.730;5.356;2022-10-31T08:25:25;18.50;81.70
24618;DHT22;12762;51.730;5.356;2022-10-31T08:27:53;18.60;80.40
24618;DHT22;12762;51.730;5.356;2022-10-31T08:30:22;18.50;79.90
24618;DHT22;12762;51.730;5.356;2022-10-31T08:33:02;18.20;79.50
24618;DHT22;12762;51.730;5.356;2022-10-31T08:35:30;18.10;80.30
24618;DHT22;12762;51.730;5.356;2022-10-31T08:37:58;18.00;80.00
24618;DHT22;12762;51.730;5.356;2022-10-31T08:40:27;17.90;80.00
24618;DHT22;12762;51.730;5.356;2022-10-31T08:42:58;17.70;80.20
24618;DHT22;12762;51.730;5.356;2022-10-31T08:45:26;17.40;80.40
24618;DHT22;12762;51.730;5.356;2022-10-31T08:47:57;17.10;80.80
24618;DHT22;12762;51.730;5.356;2022-10-31T08:50:25;16.90;81.40
24618;DHT22;12762;51.730;5.356;2022-10-31T08:52:52;16.70;81.90
24618;DHT22;12762;51.730;5.356;2022-10-31T08:55:33;16.50;82.10
24618;DHT22;12762;51.730;5.356;2022-10-31T08:58:01;16.40;82.70
24618;DHT22;12762;51.730;5.356;2022-10-31T09:00:29;16.30;83.10
24618;DHT22;12762;51.730;5.356;2022-10-31T09:03:03;16.20;83.50
24618;DHT22;12762;51.730;5.356;2022-10-31T09:05:31;16.20;83.80
24618;DHT22;12762;51.730;5.356;2022-10-31T09:08:00;16.20;84.10
24618;DHT22;12762;51.730;5.356;2022-10-31T09:10:29;16.20;84.20
24618;DHT22;12762;51.730;5.356;2022-10-31T09:15:24;16.10;84.20
24618;DHT22;12762;51.730;5.356;2022-10-31T09:17:51;16.00;84.30
24618;DHT22;12762;51.730;5.356;2022-10-31T09:20:19;16.00;84.60
24618;DHT22;12762;51.730;5.356;2022-10-31T09:22:46;15.90;84.90
24618;DHT22;12762;51.730;5.356;2022-10-31T09:25:15;16.00;85.10
24618;DHT22;12762;51.730;5.356;2022-10-31T09:27:43;16.00;85.10
24618;DHT22;12762;51.730;5.356;2022-10-31T09:30:13;16.00;85.20
24618;DHT22;12762;51.730;5.356;2022-10-31T09:32:40;15.90;85.00
24618;DHT22;12762;51.730;5.356;2022-10-31T09:35:07;15.90;85.10
24618;DHT22;12762;51.730;5.356;2022-10-31T09:37:34;15.90;85.20
24618;DHT22;12762;51.730;5.356;2022-10-31T09:40:01;15.80;85.20
24618;DHT22;12762;51.730;5.356;2022-10-31T09:45:06;15.90;85.30
24618;DHT22;12762;51.730;5.356;2022-10-31T09:55:59;16.30;85.70
24618;DHT22;12762;51.730;5.356;2022-10-31T09:58:28;16.40;85.80
24618;DHT22;12762;51.730;5.356;2022-10-31T10:01:01;16.60;85.80
24618;DHT22;12762;51.730;5.356;2022-10-31T10:03:40;16.70;85.70
24618;DHT22;12762;51.730;5.356;2022-10-31T10:06:15;16.80;85.50
24618;DHT22;12762;51.730;5.356;2022-10-31T10:08:44;16.90;85.10
24618;DHT22;12762;51.730;5.356;2022-10-31T10:11:28;16.90;85.00
24618;DHT22;12762;51.730;5.356;2022-10-31T10:17:38;16.90;84.80
24618;DHT22;12762;51.730;5.356;2022-10-31T10:26:05;17.00;84.80
24618;DHT22;12762;51.730;5.356;2022-10-31T10:28:40;17.00;85.80
24618;DHT22;12762;51.730;5.356;2022-10-31T10:31:13;17.00;85.20
24618;DHT22;12762;51.730;5.356;2022-10-31T10:33:47;17.10;85.40
24618;DHT22;12762;51.730;5.356;2022-10-31T10:36:34;17.20;85.50
24618;DHT22;12762;51.730;5.356;2022-10-31T10:39:19;17.20;85.30
24618;DHT22;12762;51.730;5.356;2022-10-31T10:41:48;17.30;85.40
24618;DHT22;12762;51.730;5.356;2022-10-31T10:44:45;17.30;85.30
24618;DHT22;12762;51.730;5.356;2022-10-31T10:47:40;17.30;85.30
24618;DHT22;12762;51.730;5.356;2022-10-31T10:50:23;17.30;85.40
24618;DHT22;12762;51.730;5.356;2022-10-31T10:55:58;17.50;85.50
24618;DHT22;12762;51.730;5.356;2022-10-31T10:58:27;17.60;85.50
24618;DHT22;12762;51.730;5.356;2022-10-31T11:00:55;17.70;85.40
24618;DHT22;12762;51.730;5.356;2022-10-31T11:03:22;17.70;85.30
24618;DHT22;12762;51.730;5.356;2022-10-31T11:05:56;17.80;85.00
24618;DHT22;12762;51.730;5.356;2022-10-31T11:08:33;17.80;84.90
24618;DHT22;12762;51.730;5.356;2022-10-31T11:11:25;17.80;84.80
24618;DHT22;12762;51.730;5.356;2022-10-31T11:14:02;17.80;84.70
24618;DHT22;12762;51.730;5.356;2022-10-31T11:16:42;17.80;84.80
24618;DHT22;12762;51.730;5.356;2022-10-31T11:21:39;17.90;85.10
24618;DHT22;12762;51.730;5.356;2022-10-31T11:26:40;18.00;84.90
24618;DHT22;12762;51.730;5.356;2022-10-31T11:29:34;18.10;85.00
24618;DHT22;12762;51.730;5.356;2022-10-31T11:32:00;18.10;84.80
24618;DHT22;12762;51.730;5.356;2022-10-31T11:34:34;18.20;84.60
24618;DHT22;12762;51.730;5.356;2022-10-31T11:39:43;18.10;84.10
24618;DHT22;12762;51.730;5.356;2022-10-31T11:42:11;18.20;84.30
24618;DHT22;12762;51.730;5.356;2022-10-31T11:44:42;18.20;84.30
24618;DHT22;12762;51.730;5.356;2022-10-31T11:47:13;18.20;84.30
24618;DHT22;12762;51.730;5.356;2022-10-31T11:49:45;18.20;84.40
24618;DHT22;12762;51.730;5.356;2022-10-31T11:52:24;18.30;84.30
24618;DHT22;12762;51.730;5.356;2022-10-31T11:55:47;18.30;84.20
24618;DHT22;12762;51.730;5.356;2022-10-31T11:57:56;18.40;84.10
24618;DHT22;12762;51.730;5.356;2022-10-31T12:00:26;18.40;83.90
24618;DHT22;12762;51.730;5.356;2022-10-31T12:05:44;18.50;83.70
24618;DHT22;12762;51.730;5.356;2022-10-31T12:08:13;18.50;83.70
24618;DHT22;12762;51.730;5.356;2022-10-31T12:13:34;18.50;84.30
24618;DHT22;12762;51.730;5.356;2022-10-31T12:16:17;18.50;83.50
24618;DHT22;12762;51.730;5.356;2022-10-31T12:19:01;18.50;83.40
24618;DHT22;12762;51.730;5.356;2022-10-31T12:25:02;18.60;83.60
24618;DHT22;12762;51.730;5.356;2022-10-31T12:28:00;18.60;83.40
24618;DHT22;12762;51.730;5.356;2022-10-31T12:30:53;18.70;83.20
24618;DHT22;12762;51.730;5.356;2022-10-31T12:33:46;18.70;83.10
24618;DHT22;12762;51.730;5.356;2022-10-31T12:58:45;18.70;82.30
24618;DHT22;12762;51.730;5.356;2022-10-31T13:01:21;18.70;82.90
24618;DHT22;12762;51.730;5.356;2022-10-31T13:04:01;18.70;82.20
24618;DHT22;12762;51.730;5.356;2022-10-31T13:06:35;18.80;82.20
24618;DHT22;12762;51.730;5.356;2022-10-31T13:09:13;18.80;81.90
24618;DHT22;12762;51.730;5.356;2022-10-31T13:11:46;18.90;81.90
24618;DHT22;12762;51.730;5.356;2022-10-31T13:14:27;18.80;81.70
24618;DHT22;12762;51.730;5.356;2022-10-31T13:16:56;18.90;81.80
24618;DHT22;12762;51.730;5.356;2022-10-31T13:19:36;18.90;81.70
24618;DHT22;12762;51.730;5.356;2022-10-31T13:22:20;18.90;81.70
24618;DHT22;12762;51.730;5.356;2022-10-31T13:28:00;19.00;81.70
24618;DHT22;12762;51.730;5.356;2022-10-31T13:30:32;19.00;81.70
24618;DHT22;12762;51.730;5.356;2022-10-31T13:39:21;19.20;81.60
24618;DHT22;12762;51.730;5.356;2022-10-31T13:41:50;19.20;81.30
24618;DHT22;12762;51.730;5.356;2022-10-31T13:44:26;19.20;81.30
24618;DHT22;12762;51.730;5.356;2022-10-31T13:46:56;19.20;81.20
24618;DHT22;12762;51.730;5.356;2022-10-31T13:52:14;19.30;81.20
24618;DHT22;12762;51.730;5.356;2022-10-31T13:54:43;19.30;80.90
24618;DHT22;12762;51.730;5.356;2022-10-31T13:57:22;19.20;80.70
24618;DHT22;12762;51.730;5.356;2022-10-31T14:00:06;19.20;80.50
24618;DHT22;12762;51.730;5.356;2022-10-31T14:02:35;19.20;80.50
24618;DHT22;12762;51.730;5.356;2022-10-31T14:05:04;19.20;80.50
24618;DHT22;12762;51.730;5.356;2022-10-31T14:07:42;19.10;80.30
24618;DHT22;12762;51.730;5.356;2022-10-31T14:10:25;19.10;80.20
24618;DHT22;12762;51.730;5.356;2022-10-31T14:15:55;19.00;80.00
24618;DHT22;12762;51.730;5.356;2022-10-31T14:18:34;19.00;80.00
24618;DHT22;12762;51.730;5.356;2022-10-31T14:21:25;19.00;80.00
24618;DHT22;12762;51.730;5.356;2022-10-31T14:23:54;18.90;80.00
24618;DHT22;12762;51.730;5.356;2022-10-31T14:26:32;18.90;80.00
24618;DHT22;12762;51.730;5.356;2022-10-31T14:29:26;18.90;80.80
24618;DHT22;12762;51.730;5.356;2022-10-31T14:40:34;18.90;79.50
24618;DHT22;12762;51.730;5.356;2022-10-31T14:46:35;18.80;79.40
24618;DHT22;12762;51.730;5.356;2022-10-31T14:51:59;18.70;79.20
24618;DHT22;12762;51.730;5.356;2022-10-31T14:54:30;18.70;79.30
24618;DHT22;12762;51.730;5.356;2022-10-31T14:57:05;18.60;79.10
24618;DHT22;12762;51.730;5.356;2022-10-31T14:59:37;18.60;79.00
24618;DHT22;12762;51.730;5.356;2022-10-31T15:02:32;18.60;79.00
24618;DHT22;12762;51.730;5.356;2022-10-31T15:05:08;18.60;79.00
24618;DHT22;12762;51.730;5.356;2022-10-31T15:07:35;18.50;79.00
24618;DHT22;12762;51.730;5.356;2022-10-31T15:10:06;18.50;79.10
24618;DHT22;12762;51.730;5.356;2022-10-31T15:12:38;18.50;79.20
24618;DHT22;12762;51.730;5.356;2022-10-31T15:15:21;18.40;79.10
24618;DHT22;12762;51.730;5.356;2022-10-31T15:17:57;18.40;79.10
24618;DHT22;12762;51.730;5.356;2022-10-31T15:20:28;18.40;79.00
24618;DHT22;12762;51.730;5.356;2022-10-31T15:22:57;18.40;79.00
24618;DHT22;12762;51.730;5.356;2022-10-31T15:25:26;18.40;78.90
24618;DHT22;12762;51.730;5.356;2022-10-31T15:27:53;18.40;79.00
24618;DHT22;12762;51.730;5.356;2022-10-31T15:30:23;18.40;78.90
24618;DHT22;12762;51.730;5.356;2022-10-31T15:32:52;18.40;78.80
24618;DHT22;12762;51.730;5.356;2022-10-31T15:35:29;18.40;78.90
24618;DHT22;12762;51.730;5.356;2022-10-31T15:37:57;18.30;78.70
24618;DHT22;12762;51.730;5.356;2022-10-31T15:40:28;18.30;78.80
24618;DHT22;12762;51.730;5.356;2022-10-31T15:43:01;18.20;78.70
24618;DHT22;12762;51.730;5.356;2022-10-31T15:45:29;18.20;78.70
24618;DHT22;12762;51.730;5.356;2022-10-31T15:50:39;18.10;78.80
24618;DHT22;12762;51.730;5.356;2022-10-31T15:53:18;18.00;78.70
24618;DHT22;12762;51.730;5.356;2022-10-31T15:55:50;17.90;78.80
24618;DHT22;12762;51.730;5.356;2022-10-31T15:58:18;17.80;78.90
24618;DHT22;12762;51.730;5.356;2022-10-31T16:01:03;17.80;79.00
24618;DHT22;12762;51.730;5.356;2022-10-31T16:03:32;17.80;79.00
24618;DHT22;12762;51.730;5.356;2022-10-31T16:06:04;17.70;79.10
24618;DHT22;12762;51.730;5.356;2022-10-31T16:08:34;17.60;79.10
24618;DHT22;12762;51.730;5.356;2022-10-31T16:13:40;17.50;80.10
24618;DHT22;12762;51.730;5.356;2022-10-31T16:16:15;17.40;79.40
24618;DHT22;12762;51.730;5.356;2022-10-31T16:19:05;17.30;79.30
24618;DHT22;12762;51.730;5.356;2022-10-31T16:21:36;17.20;79.40
24618;DHT22;12762;51.730;5.356;2022-10-31T16:24:25;17.20;79.50
24618;DHT22;12762;51.730;5.356;2022-10-31T16:26:55;17.10;79.40
24618;DHT22;12762;51.730;5.356;2022-10-31T16:29:32;17.00;79.70
24618;DHT22;12762;51.730;5.356;2022-10-31T16:31:59;16.90;79.70
24618;DHT22;12762;51.730;5.356;2022-10-31T16:34:26;16.90;79.90
24618;DHT22;12762;51.730;5.356;2022-10-31T16:36:53;16.80;79.90
24618;DHT22;12762;51.730;5.356;2022-10-31T16:39:20;16.80;80.00
24618;DHT22;12762;51.730;5.356;2022-10-31T16:41:51;16.70;80.00
24618;DHT22;12762;51.730;5.356;2022-10-31T16:44:25;16.60;80.10
24618;DHT22;12762;51.730;5.356;2022-10-31T16:47:12;16.50;80.20
24618;DHT22;12762;51.730;5.356;2022-10-31T16:49:41;16.50;80.10
24618;DHT22;12762;51.730;5.356;2022-10-31T16:52:08;16.50;80.40
24618;DHT22;12762;51.730;5.356;2022-10-31T16:54:35;16.40;80.40
24618;DHT22;12762;51.730;5.356;2022-10-31T16:57:03;16.40;80.50
24618;DHT22;12762;51.730;5.356;2022-10-31T16:59:31;16.30;80.50
24618;DHT22;12762;51.730;5.356;2022-10-31T17:02:00;16.30;80.70
24618;DHT22;12762;51.730;5.356;2022-10-31T17:04:27;16.20;80.70
24618;DHT22;12762;51.730;5.356;2022-10-31T17:06:54;16.20;80.80
24618;DHT22;12762;51.730;5.356;2022-10-31T17:09:21;16.10;80.70
24618;DHT22;12762;51.730;5.356;2022-10-31T17:11:50;16.10;80.90
24618;DHT22;12762;51.730;5.356;2022-10-31T17:14:18;16.00;80.90
24618;DHT22;12762;51.730;5.356;2022-10-31T17:16:44;16.00;81.00
24618;DHT22;12762;51.730;5.356;2022-10-31T17:19:15;15.90;81.10
24618;DHT22;12762;51.730;5.356;2022-10-31T17:21:42;15.90;81.20
24618;DHT22;12762;51.730;5.356;2022-10-31T17:24:13;15.90;81.30
24618;DHT22;12762;51.730;5.356;2022-10-31T17:26:41;15.90;81.40
24618;DHT22;12762;51.730;5.356;2022-10-31T17:29:07;15.80;81.50
24618;DHT22;12762;51.730;5.356;2022-10-31T17:31:35;15.80;81.50
24618;DHT22;12762;51.730;5.356;2022-10-31T17:34:05;15.80;81.60
24618;DHT22;12762;51.730;5.356;2022-10-31T17:36:33;15.80;81.70
24618;DHT22;12762;51.730;5.356;2022-10-31T17:39:04;15.80;81.70
24618;DHT22;12762;51.730;5.356;2022-10-31T17:41:33;15.80;81.70
24618;DHT22;12762;51.730;5.356;2022-10-31T17:44:05;15.80;81.70
24618;DHT22;12762;51.730;5.356;2022-10-31T17:46:32;15.80;81.70
24618;DHT22;12762;51.730;5.356;2022-10-31T17:48:59;15.80;81.70
24618;DHT22;12762;51.730;5.356;2022-10-31T17:51:27;15.70;81.60
24618;DHT22;12762;51.730;5.356;2022-10-31T17:53:54;15.70;81.70
24618;DHT22;12762;51.730;5.356;2022-10-31T17:56:20;15.70;81.60
24618;DHT22;12762;51.730;5.356;2022-10-31T17:58:47;15.70;81.70
24618;DHT22;12762;51.730;5.356;2022-10-31T18:01:16;15.70;81.60
24618;DHT22;12762;51.730;5.356;2022-10-31T18:03:43;15.70;81.70
24618;DHT22;12762;51.730;5.356;2022-10-31T18:06:11;15.60;81.60
24618;DHT22;12762;51.730;5.356;2022-10-31T18:08:40;15.60;81.70